sensor_id;sensor_type;location;lat;lon;timestamp;pressure;altitude;pressure_sealevel;temperature;humidity
29121;BME280;16191;49.548;8.658;2022-09-09T00:03:57;99934.13;;;17.00;100.00
29121;BME280;16191;49.548;8.658;2022-09-09T00:07:10;99920.34;;;16.96;100.00
29121;BME280;16191;49.548;8.658;2022-09-09T00:10:04;99916.13;;;16.94;100.00
29121;BME280;16191;49.548;8.658;2022-09-09T00:13:04;99915.63;;;16.89;100.00
29121;BME280;16191;49.548;8.658;2022-09-09T00:19:23;99926.50;;;16.84;100.00
29121;BME280;16191;49.548;8.658;2022-09-09T00:22:19;99923.34;;;16.79;100.00
29121;BME280;16191;49.548;8.658;2022-09-09T00:24:54;99926.72;;;16.81;100.00
29121;BME280;16191;49.548;8.658;2022-09-09T00:30:13;99923.41;;;16.90;100.00
29121;BME280;16191;49.548;8.658;2022-09-09T00:32:41;99920.97;;;17.00;100.00
29121;BME280;16191;49.548;8.658;2022-09-09T00:35:18;99921.00;;;17.11;100.00
29121;BME280;16191;49.548;8.658;2022-09-09T00:37:50;99916.31;;;17.27;100.00
29121;BME280;16191;49.548;8.658;2022-09-09T00:40:24;99915.63;;;17.36;100.00
29121;BME280;16191;49.548;8.658;2022-09-09T00:43:03;99923.31;;;17.39;100.00
29121;BME280;16191;49.548;8.658;2022-09-09T00:45:39;99922.25;;;17.42;100.00
29121;BME280;16191;49.548;8.658;2022-09-09T00:48:13;99922.97;;;17.44;100.00
29121;BME280;16191;49.548;8.658;2022-09-09T00:50:59;99910.06;;;17.52;100.00
29121;BME280;16191;49.548;8.658;2022-09-09T00:53:35;99907.75;;;17.47;100.00
29121;BME280;16191;49.548;8.658;2022-09-09T00:56:12;99908.25;;;17.53;100.00
29121;BME280;16191;49.548;8.658;2022-09-09T00:58:50;99912.22;;;17.58;100.00
29121;BME280;16191;49.548;8.658;2022-09-09T01:01:20;99915.69;;;17.59;100.00
29121;BME280;16191;49.548;8.658;2022-09-09T01:03:54;99911.38;;;17.58;100.00
29121;BME280;16191;49.548;8.658;2022-09-09T01:06:35;99921.69;;;17.61;100.00
29121;BME280;16191;49.548;8.658;2022-09-09T01:09:21;99921.09;;;17.57;100.00
29121;BME280;16191;49.548;8.658;2022-09-09T01:12:15;99918.22;;;17.60;100.00
29121;BME280;16191;49.548;8.658;2022-09-09T01:14:49;99911.69;;;17.66;100.00
29121;BME280;16191;49.548;8.658;2022-09-09T01:17:26;99909.25;;;17.63;100.00
29121;BME280;16191;49.548;8.658;2022-09-09T01:20:08;99904.53;;;17.55;100.00
29121;BME280;16191;49.548;8.658;2022-09-09T01:22:57;99901.19;;;17.53;100.00
29121;BME280;16191;49.548;8.658;2022-09-09T01:28:28;99914.97;;;17.57;100.00
29121;BME280;16191;49.548;8.658;2022-09-09T01:31:03;99908.38;;;17.51;100.00
29121;BME280;16191;49.548;8.658;2022-09-09T01:33:37;99912.22;;;17.58;100.00
29121;BME280;16191;49.548;8.658;2022-09-09T01:36:08;99910.75;;;17.54;100.00
29121;BME280;16191;49.548;8.658;2022-09-09T01:38:44;99919.88;;;17.50;100.00
29121;BME280;16191;49.548;8.658;2022-09-09T01:41:11;99926.56;;;17.43;100.00
29121;BME280;16191;49.548;8.658;2022-09-09T01:43:45;99915.91;;;17.44;100.00
29121;BME280;16191;49.548;8.658;2022-09-09T01:46:12;99930.78;;;17.45;100.00
29121;BME280;16191;49.548;8.658;2022-09-09T01:48:41;99927.41;;;17.43;100.00
29121;BME280;16191;49.548;8.658;2022-09-09T01:51:09;99932.91;;;17.40;100.00
29121;BME280;16191;49.548;8.658;2022-09-09T01:53:39;99926.78;;;17.40;100.00
29121;BME280;16191;49.548;8.658;2022-09-09T01:56:21;99923.41;;;17.38;100.00
29121;BME280;16191;49.548;8.658;2022-09-09T01:59:08;99932.69;;;17.43;100.00
29121;BME280;16191;49.548;8.658;2022-09-09T02:04:50;99930.25;;;17.40;100.00
29121;BME280;16191;49.548;8.658;2022-09-09T02:07:43;99917.41;;;17.36;100.00
29121;BME280;16191;49.548;8.658;2022-09-09T02:10:40;99918.97;;;17.38;100.00
29121;BME280;16191;49.548;8.658;2022-09-09T02:13:16;99919.44;;;17.32;100.00
29121;BME280;16191;49.548;8.658;2022-09-09T02:15:49;99929.16;;;17.32;100.00
29121;BME280;16191;49.548;8.658;2022-09-09T02:18:27;99920.25;;;17.33;100.00
29121;BME280;16191;49.548;8.658;2022-09-09T02:20:56;99925.91;;;17.28;100.00
29121;BME280;16191;49.548;8.658;2022-09-09T02:23:25;99928.03;;;17.23;100.00
29121;BME280;16191;49.548;8.658;2022-09-09T02:25:55;99932.13;;;17.27;100.00
29121;BME280;16191;49.548;8.658;2022-09-09T02:28:26;99926.47;;;17.21;100.00
29121;BME280;16191;49.548;8.658;2022-09-09T02:30:55;99942.50;;;17.18;100.00
29121;BME280;16191;49.548;8.658;2022-09-09T02:33:33;99924.78;;;17.20;100.00
29121;BME280;16191;49.548;8.658;2022-09-09T02:36:03;99932.56;;;17.21;100.00
29121;BME280;16191;49.548;8.658;2022-09-09T02:38:36;99931.09;;;17.17;100.00
29121;BME280;16191;49.548;8.658;2022-09-09T02:41:08;99941.03;;;17.13;100.00
29121;BME280;16191;49.548;8.658;2022-09-09T02:43:35;99929.91;;;17.10;100.00
29121;BME280;16191;49.548;8.658;2022-09-09T02:46:27;99926.28;;;17.11;100.00
29121;BME280;16191;49.548;8.658;2022-09-09T02:49:01;99927.13;;;17.11;100.00
29121;BME280;16191;49.548;8.658;2022-09-09T02:51:48;99936.50;;;17.16;100.00
29121;BME280;16191;49.548;8.658;2022-09-09T02:54:27;99930.97;;;17.07;100.00
29121;BME280;16191;49.548;8.658;2022-09-09T02:57:09;99947.09;;;17.03;100.00
29121;BME280;16191;49.548;8.658;2022-09-09T02:59:39;99943.09;;;16.97;100.00
29121;BME280;16191;49.548;8.658;2022-09-09T03:02:06;99929.91;;;16.97;100.00
29121;BME280;16191;49.548;8.658;2022-09-09T03:04:33;99931.94;;;16.94;100.00
29121;BME280;16191;49.548;8.658;2022-09-09T03:07:00;99931.19;;;16.92;100.00
29121;BME280;16191;49.548;8.658;2022-09-09T03:09:27;99934.09;;;16.89;100.00
29121;BME280;16191;49.548;8.658;2022-09-09T03:11:55;99920.38;;;16.84;100.00
29121;BME280;16191;49.548;8.658;2022-09-09T03:14:23;99923.34;;;16.79;100.00
29121;BME280;16191;49.548;8.658;2022-09-09T03:16:52;99916.06;;;16.83;100.00
29121;BME280;16191;49.548;8.658;2022-09-09T03:19:20;99907.75;;;16.76;100.00
29121;BME280;16191;49.548;8.658;2022-09-09T03:21:48;99916.81;;;16.72;100.00
29121;BME280;16191;49.548;8.658;2022-09-09T03:24:15;99919.25;;;16.62;100.00
29121;BME280;16191;49.548;8.658;2022-09-09T03:26:42;99915.78;;;16.62;100.00
29121;BME280;16191;49.548;8.658;2022-09-09T03:29:15;99922.66;;;16.64;100.00
29121;BME280;16191;49.548;8.658;2022-09-09T03:31:43;99921.88;;;16.62;100.00
29121;BME280;16191;49.548;8.658;2022-09-09T03:34:11;99917.34;;;16.52;100.00
29121;BME280;16191;49.548;8.658;2022-09-09T03:36:37;99920.09;;;16.50;100.00
29121;BME280;16191;49.548;8.658;2022-09-09T03:39:04;99921.69;;;16.53;100.00
29121;BME280;16191;49.548;8.658;2022-09-09T03:41:31;99928.09;;;16.49;100.00
29121;BME280;16191;49.548;8.658;2022-09-09T03:44:00;99916.97;;;16.45;100.00
29121;BME280;16191;49.548;8.658;2022-09-09T03:46:30;99925.94;;;16.42;100.00
29121;BME280;16191;49.548;8.658;2022-09-09T03:48:58;99910.97;;;16.43;100.00
29121;BME280;16191;49.548;8.658;2022-09-09T03:51:25;99912.03;;;16.40;100.00
29121;BME280;16191;49.548;8.658;2022-09-09T03:53:52;99920.66;;;16.42;100.00
29121;BME280;16191;49.548;8.658;2022-09-09T03:56:22;99921.28;;;16.33;100.00
29121;BME280;16191;49.548;8.658;2022-09-09T03:58:49;99926.75;;;16.30;100.00
29121;BME280;16191;49.548;8.658;2022-09-09T04:01:15;99922.66;;;16.26;100.00
29121;BME280;16191;49.548;8.658;2022-09-09T04:03:45;99925.28;;;16.26;100.00
29121;BME280;16191;49.548;8.658;2022-09-09T04:06:12;99922.66;;;16.26;100.00
29121;BME280;16191;49.548;8.658;2022-09-09T04:08:43;99915.09;;;16.22;100.00
29121;BME280;16191;49.548;8.658;2022-09-09T04:11:12;99921.72;;;16.27;100.00
29121;BME280;16191;49.548;8.658;2022-09-09T04:13:39;99924.25;;;16.16;100.00
29121;BME280;16191;49.548;8.658;2022-09-09T04:16:10;99932.03;;;16.18;100.00
29121;BME280;16191;49.548;8.658;2022-09-09T04:18:37;99933.94;;;16.16;100.00
29121;BME280;16191;49.548;8.658;2022-09-09T04:21:05;99938.25;;;16.17;100.00
29121;BME280;16191;49.548;8.658;2022-09-09T04:23:34;99943.84;;;16.12;100.00
29121;BME280;16191;49.548;8.658;2022-09-09T04:26:02;99938.78;;;16.09;100.00
29121;BME280;16191;49.548;8.658;2022-09-09T04:28:32;99933.63;;;16.07;100.00
29121;BME280;16191;49.548;8.658;2022-09-09T04:31:10;99933.63;;;16.07;100.00
29121;BME280;16191;49.548;8.658;2022-09-09T04:33:41;99925.50;;;16.10;100.00
29121;BME280;16191;49.548;8.658;2022-09-09T04:36:09;99935.31;;;15.96;100.00
29121;BME280;16191;49.548;8.658;2022-09-09T04:38:36;99931.28;;;16.03;100.00
29121;BME280;16191;49.548;8.658;2022-09-09T04:41:04;99944.44;;;16.03;100.00
29121;BME280;16191;49.548;8.658;2022-09-09T04:43:33;99948.06;;;16.02;100.00
29121;BME280;16191;49.548;8.658;2022-09-09T04:46:02;99952.78;;;15.97;100.00
29121;BME280;16191;49.548;8.658;2022-09-09T04:48:29;99948.25;;;15.99;100.00
29121;BME280;16191;49.548;8.658;2022-09-09T04:51:00;99946.38;;;16.01;100.00
29121;BME280;16191;49.548;8.658;2022-09-09T04:53:29;99958.25;;;16.06;100.00
29121;BME280;16191;49.548;8.658;2022-09-09T04:58:32;99957.50;;;16.04;100.00
29121;BME280;16191;49.548;8.658;2022-09-09T05:01:10;99969.81;;;16.04;100.00
29121;BME280;16191;49.548;8.658;2022-09-09T05:03:39;99964.91;;;15.99;100.00
29121;BME280;16191;49.548;8.658;2022-09-09T05:06:12;99970.16;;;15.99;100.00
29121;BME280;16191;49.548;8.658;2022-09-09T05:08:41;99965.63;;;16.01;100.00
29121;BME280;16191;49.548;8.658;2022-09-09T05:11:26;99969.81;;;16.04;100.00
29121;BME280;16191;49.548;8.658;2022-09-09T05:13:58;99965.50;;;16.03;100.00
29121;BME280;16191;49.548;8.658;2022-09-09T05:16:26;99972.16;;;16.08;100.00
29121;BME280;16191;49.548;8.658;2022-09-09T05:18:54;99959.19;;;16.05;100.00
29121;BME280;16191;49.548;8.658;2022-09-09T05:21:22;99963.31;;;16.09;100.00
29121;BME280;16191;49.548;8.658;2022-09-09T05:23:49;99961.72;;;16.07;100.00
29121;BME280;16191;49.548;8.658;2022-09-09T05:26:20;99968.66;;;16.08;100.00
29121;BME280;16191;49.548;8.658;2022-09-09T05:28:48;99977.41;;;16.08;100.00
29121;BME280;16191;49.548;8.658;2022-09-09T05:31:16;99979.75;;;16.13;100.00
29121;BME280;16191;49.548;8.658;2022-09-09T05:33:47;99986.69;;;16.14;100.00
29121;BME280;16191;49.548;8.658;2022-09-09T05:36:18;99992.16;;;16.11;100.00
29121;BME280;16191;49.548;8.658;2022-09-09T05:38:47;99992.50;;;16.19;100.00
29121;BME280;16191;49.548;8.658;2022-09-09T05:41:14;99996.59;;;16.23;100.00
29121;BME280;16191;49.548;8.658;2022-09-09T05:43:42;99993.13;;;16.23;100.00
29121;BME280;16191;49.548;8.658;2022-09-09T05:46:19;99991.97;;;16.39;100.00
29121;BME280;16191;49.548;8.658;2022-09-09T05:48:49;99995.13;;;16.32;100.00
29121;BME280;16191;49.548;8.658;2022-09-09T05:51:26;99995.66;;;16.37;100.00
29121;BME280;16191;49.548;8.658;2022-09-09T05:53:56;99997.97;;;16.41;100.00
29121;BME280;16191;49.548;8.658;2022-09-09T05:56:28;100000.50;;;16.43;100.00
29121;BME280;16191;49.548;8.658;2022-09-09T05:58:57;100002.78;;;16.48;100.00
29121;BME280;16191;49.548;8.658;2022-09-09T06:01:32;99999.75;;;16.41;100.00
29121;BME280;16191;49.548;8.658;2022-09-09T06:04:01;100005.44;;;16.48;100.00
29121;BME280;16191;49.548;8.658;2022-09-09T06:06:34;100005.53;;;16.46;100.00
29121;BME280;16191;49.548;8.658;2022-09-09T06:09:12;100002.50;;;16.52;100.00
29121;BME280;16191;49.548;8.658;2022-09-09T06:11:42;100008.91;;;16.48;100.00
29121;BME280;16191;49.548;8.658;2022-09-09T06:14:10;100002.69;;;16.62;100.00
29121;BME280;16191;49.548;8.658;2022-09-09T06:16:38;100010.28;;;16.54;100.00
29121;BME280;16191;49.548;8.658;2022-09-09T06:19:11;100012.59;;;16.58;100.00
29121;BME280;16191;49.548;8.658;2022-09-09T06:21:39;100008.28;;;16.57;100.00
29121;BME280;16191;49.548;8.658;2022-09-09T06:24:08;100003.03;;;16.57;100.00
29121;BME280;16191;49.548;8.658;2022-09-09T06:26:37;100002.28;;;16.55;100.00
29121;BME280;16191;49.548;8.658;2022-09-09T06:29:04;100002.28;;;16.55;100.00
29121;BME280;16191;49.548;8.658;2022-09-09T06:31:33;100010.81;;;16.46;100.00
29121;BME280;16191;49.548;8.658;2022-09-09T06:34:08;100001.66;;;16.52;100.00
29121;BME280;16191;49.548;8.658;2022-09-09T06:36:39;100004.69;;;16.45;100.00
29121;BME280;16191;49.548;8.658;2022-09-09T06:39:07;100004.16;;;16.53;100.00
29121;BME280;16191;49.548;8.658;2022-09-09T06:41:41;100003.13;;;16.68;100.00
29121;BME280;16191;49.548;8.658;2022-09-09T06:44:29;100007.91;;;16.63;100.00
29121;BME280;16191;49.548;8.658;2022-09-09T06:47:01;100010.31;;;16.66;100.00
29121;BME280;16191;49.548;8.658;2022-09-09T06:49:28;100007.44;;;16.82;100.00
29121;BME280;16191;49.548;8.658;2022-09-09T06:51:55;100008.69;;;16.89;100.00
29121;BME280;16191;49.548;8.658;2022-09-09T06:54:21;100012.16;;;16.90;100.00
29121;BME280;16191;49.548;8.658;2022-09-09T06:56:50;100022.06;;;16.99;100.00
29121;BME280;16191;49.548;8.658;2022-09-09T06:59:21;100017.84;;;17.09;100.00
29121;BME280;16191;49.548;8.658;2022-09-09T07:01:48;100016.66;;;17.13;100.00
29121;BME280;16191;49.548;8.658;2022-09-09T07:04:21;100018.22;;;17.16;100.00
29121;BME280;16191;49.548;8.658;2022-09-09T07:06:48;100018.88;;;17.43;100.00
29121;BME280;16191;49.548;8.658;2022-09-09T07:09:19;100025.75;;;17.33;100.00
29121;BME280;16191;49.548;8.658;2022-09-09T07:11:50;100015.22;;;17.33;100.00
29121;BME280;16191;49.548;8.658;2022-09-09T07:14:22;100016.47;;;17.40;100.00
29121;BME280;16191;49.548;8.658;2022-09-09T07:16:56;100017.63;;;17.36;100.00
29121;BME280;16191;49.548;8.658;2022-09-09T07:19:26;100011.47;;;17.48;100.00
29121;BME280;16191;49.548;8.658;2022-09-09T07:21:54;100011.84;;;17.55;100.00
29121;BME280;16191;49.548;8.658;2022-09-09T07:24:22;100011.09;;;17.65;100.00
29121;BME280;16191;49.548;8.658;2022-09-09T07:26:50;100008.75;;;17.73;100.00
29121;BME280;16191;49.548;8.658;2022-09-09T07:29:18;100015.09;;;17.71;100.00
29121;BME280;16191;49.548;8.658;2022-09-09T07:31:47;100011.84;;;17.67;100.00
29121;BME280;16191;49.548;8.658;2022-09-09T07:34:20;100010.91;;;17.79;100.00
29121;BME280;16191;49.548;8.658;2022-09-09T07:36:47;100014.69;;;17.88;100.00
29121;BME280;16191;49.548;8.658;2022-09-09T07:39:16;100017.34;;;17.99;100.00
29121;BME280;16191;49.548;8.658;2022-09-09T07:41:49;100019.63;;;17.93;100.00
29121;BME280;16191;49.548;8.658;2022-09-09T07:44:21;100022.50;;;17.90;100.00
29121;BME280;16191;49.548;8.658;2022-09-09T07:46:54;100016.75;;;17.96;100.00
29121;BME280;16191;49.548;8.658;2022-09-09T07:49:26;100018.38;;;17.86;100.00
29121;BME280;16191;49.548;8.658;2022-09-09T07:51:59;100013.41;;;18.05;100.00
29121;BME280;16191;49.548;8.658;2022-09-09T07:54:26;100023.03;;;18.06;100.00
29121;BME280;16191;49.548;8.658;2022-09-09T07:56:53;100013.06;;;18.09;100.00
29121;BME280;16191;49.548;8.658;2022-09-09T07:59:23;100010.53;;;18.08;100.00
29121;BME280;16191;49.548;8.658;2022-09-09T08:01:52;100010.22;;;18.24;100.00
29121;BME280;16191;49.548;8.658;2022-09-09T08:04:26;100012.84;;;18.24;100.00
29121;BME280;16191;49.548;8.658;2022-09-09T08:06:59;100019.88;;;18.47;100.00
29121;BME280;16191;49.548;8.658;2022-09-09T08:09:29;100024.06;;;18.49;100.00
29121;BME280;16191;49.548;8.658;2022-09-09T08:12:07;100027.72;;;18.71;100.00
29121;BME280;16191;49.548;8.658;2022-09-09T08:14:38;100023.97;;;18.62;100.00
29121;BME280;16191;49.548;8.658;2022-09-09T08:17:06;100028.22;;;18.76;100.00
29121;BME280;16191;49.548;8.658;2022-09-09T08:19:32;100034.91;;;18.58;100.00
29121;BME280;16191;49.548;8.658;2022-09-09T08:22:06;100043.13;;;18.77;100.00
29121;BME280;16191;49.548;8.658;2022-09-09T08:24:36;100043.31;;;18.63;100.00
29121;BME280;16191;49.548;8.658;2022-09-09T08:27:03;100045.72;;;18.66;100.00
29121;BME280;16191;49.548;8.658;2022-09-09T08:29:30;100049.41;;;18.52;100.00
29121;BME280;16191;49.548;8.658;2022-09-09T08:31:57;100040.56;;;18.64;100.00
29121;BME280;16191;49.548;8.658;2022-09-09T08:34:26;100036.44;;;18.49;100.00
29121;BME280;16191;49.548;8.658;2022-09-09T08:36:55;100044.72;;;18.33;100.00
29121;BME280;16191;49.548;8.658;2022-09-09T08:39:28;100033.41;;;18.42;100.00
29121;BME280;16191;49.548;8.658;2022-09-09T08:45:27;100032.22;;;18.46;100.00
29121;BME280;16191;49.548;8.658;2022-09-09T08:50:36;100034.03;;;18.46;100.00
29121;BME280;16191;49.548;8.658;2022-09-09T08:53:22;100052.75;;;18.43;100.00
29121;BME280;16191;49.548;8.658;2022-09-09T08:55:55;100046.88;;;18.39;100.00
29121;BME280;16191;49.548;8.658;2022-09-09T08:58:45;100060.44;;;18.46;100.00
29121;BME280;16191;49.548;8.658;2022-09-09T09:10:10;100044.44;;;18.82;100.00
29121;BME280;16191;49.548;8.658;2022-09-09T09:13:01;100047.19;;;18.70;100.00
29121;BME280;16191;49.548;8.658;2022-09-09T09:15:34;100051.16;;;18.75;100.00
29121;BME280;16191;49.548;8.658;2022-09-09T09:18:04;100045.28;;;18.72;100.00
29121;BME280;16191;49.548;8.658;2022-09-09T09:20:48;100040.72;;;18.74;100.00
29121;BME280;16191;49.548;8.658;2022-09-09T09:23:23;100039.63;;;18.88;100.00
29121;BME280;16191;49.548;8.658;2022-09-09T09:25:58;100029.16;;;18.97;100.00
29121;BME280;16191;49.548;8.658;2022-09-09T09:28:31;100033.06;;;19.59;100.00
29121;BME280;16191;49.548;8.658;2022-09-09T09:31:08;100033.59;;;20.05;100.00
29121;BME280;16191;49.548;8.658;2022-09-09T09:33:51;100041.91;;;20.01;95.48
29121;BME280;16191;49.548;8.658;2022-09-09T09:36:33;100027.78;;;20.32;97.87
29121;BME280;16191;49.548;8.658;2022-09-09T09:39:02;100041.88;;;20.33;94.51
29121;BME280;16191;49.548;8.658;2022-09-09T09:41:50;100021.19;;;20.27;92.75
29121;BME280;16191;49.548;8.658;2022-09-09T09:44:30;100030.41;;;20.74;90.83
29121;BME280;16191;49.548;8.658;2022-09-09T09:47:13;100020.03;;;20.19;92.12
29121;BME280;16191;49.548;8.658;2022-09-09T09:49:57;100014.69;;;20.10;91.61
29121;BME280;16191;49.548;8.658;2022-09-09T09:52:30;100011.47;;;19.95;90.26
29121;BME280;16191;49.548;8.658;2022-09-09T09:55:03;100016.22;;;20.12;88.36
29121;BME280;16191;49.548;8.658;2022-09-09T09:57:34;100027.72;;;20.02;89.70
29121;BME280;16191;49.548;8.658;2022-09-09T10:00:16;100030.38;;;19.70;91.92
29121;BME280;16191;49.548;8.658;2022-09-09T10:02:50;100043.06;;;19.44;94.16
29121;BME280;16191;49.548;8.658;2022-09-09T10:05:28;100052.44;;;19.37;97.22
29121;BME280;16191;49.548;8.658;2022-09-09T10:08:13;100060.03;;;19.30;100.00
29121;BME280;16191;49.548;8.658;2022-09-09T10:10:55;100075.69;;;19.00;100.00
29121;BME280;16191;49.548;8.658;2022-09-09T10:18:53;100079.16;;;17.97;100.00
29121;BME280;16191;49.548;8.658;2022-09-09T10:24:58;100074.53;;;18.11;100.00
29121;BME280;16191;49.548;8.658;2022-09-09T10:30:23;100049.03;;;18.45;100.00
29121;BME280;16191;49.548;8.658;2022-09-09T10:33:10;100037.94;;;18.64;100.00
29121;BME280;16191;49.548;8.658;2022-09-09T10:36:01;100035.28;;;18.87;100.00
29121;BME280;16191;49.548;8.658;2022-09-09T10:38:59;100038.47;;;19.57;100.00
29121;BME280;16191;49.548;8.658;2022-09-09T10:41:44;100029.25;;;19.83;100.00
29121;BME280;16191;49.548;8.658;2022-09-09T10:47:21;100023.00;;;19.73;100.00
29121;BME280;16191;49.548;8.658;2022-09-09T10:52:32;100021.22;;;20.78;100.00
29121;BME280;16191;49.548;8.658;2022-09-09T10:55:31;100009.28;;;20.93;100.00
29121;BME280;16191;49.548;8.658;2022-09-09T10:57:58;100009.69;;;21.29;100.00
29121;BME280;16191;49.548;8.658;2022-09-09T11:00:39;100000.66;;;21.10;100.00
29121;BME280;16191;49.548;8.658;2022-09-09T11:03:15;99989.78;;;21.13;100.00
29121;BME280;16191;49.548;8.658;2022-09-09T11:06:04;99985.69;;;21.59;98.48
29121;BME280;16191;49.548;8.658;2022-09-09T11:08:34;99998.66;;;21.33;90.51
29121;BME280;16191;49.548;8.658;2022-09-09T11:13:49;99987.50;;;21.87;80.02
29121;BME280;16191;49.548;8.658;2022-09-09T11:16:35;99962.47;;;22.00;78.45
29121;BME280;16191;49.548;8.658;2022-09-09T11:19:13;99971.31;;;22.00;76.99
29121;BME280;16191;49.548;8.658;2022-09-09T11:21:48;99972.13;;;22.10;74.55
29121;BME280;16191;49.548;8.658;2022-09-09T11:24:22;99981.56;;;22.32;71.86
29121;BME280;16191;49.548;8.658;2022-09-09T11:26:55;99974.44;;;22.79;72.81
29121;BME280;16191;49.548;8.658;2022-09-09T11:35:01;99977.50;;;22.47;65.20
29121;BME280;16191;49.548;8.658;2022-09-09T11:40:29;99985.34;;;23.58;65.41
29121;BME280;16191;49.548;8.658;2022-09-09T11:43:19;99967.25;;;23.35;65.73
29121;BME280;16191;49.548;8.658;2022-09-09T11:45:54;99970.50;;;23.74;62.70
29121;BME280;16191;49.548;8.658;2022-09-09T11:48:28;99981.28;;;23.09;61.86
29121;BME280;16191;49.548;8.658;2022-09-09T11:51:10;99974.22;;;23.63;61.23
29121;BME280;16191;49.548;8.658;2022-09-09T11:56:25;99981.47;;;23.25;58.08
29121;BME280;16191;49.548;8.658;2022-09-09T11:59:17;99975.69;;;22.85;58.12
29121;BME280;16191;49.548;8.658;2022-09-09T12:01:49;99976.97;;;23.26;59.02
29121;BME280;16191;49.548;8.658;2022-09-09T12:04:26;99980.03;;;23.13;60.05
29121;BME280;16191;49.548;8.658;2022-09-09T12:06:59;99977.00;;;22.99;59.14
29121;BME280;16191;49.548;8.658;2022-09-09T12:19:40;99985.91;;;22.43;60.52
29121;BME280;16191;49.548;8.658;2022-09-09T12:22:27;99989.47;;;22.05;62.10
29121;BME280;16191;49.548;8.658;2022-09-09T12:25:00;99995.91;;;22.02;61.05
29121;BME280;16191;49.548;8.658;2022-09-09T12:27:45;99994.44;;;22.46;61.14
29121;BME280;16191;49.548;8.658;2022-09-09T12:30:15;99997.56;;;21.74;63.31
29121;BME280;16191;49.548;8.658;2022-09-09T12:32:43;99991.28;;;21.85;65.35
29121;BME280;16191;49.548;8.658;2022-09-09T12:35:21;99994.75;;;21.47;63.93
29121;BME280;16191;49.548;8.658;2022-09-09T12:37:54;100028.56;;;21.05;62.46
29121;BME280;16191;49.548;8.658;2022-09-09T12:40:31;100041.34;;;19.65;73.20
29121;BME280;16191;49.548;8.658;2022-09-09T12:43:22;100069.50;;;19.66;80.88
29121;BME280;16191;49.548;8.658;2022-09-09T12:45:51;100068.66;;;18.19;99.81
29121;BME280;16191;49.548;8.658;2022-09-09T12:48:44;100051.44;;;18.37;100.00
29121;BME280;16191;49.548;8.658;2022-09-09T12:51:23;100041.38;;;18.54;100.00
29121;BME280;16191;49.548;8.658;2022-09-09T12:53:51;100060.59;;;18.56;100.00
29121;BME280;16191;49.548;8.658;2022-09-09T12:56:23;100044.31;;;18.62;100.00
29121;BME280;16191;49.548;8.658;2022-09-09T12:58:54;100021.97;;;18.99;100.00
29121;BME280;16191;49.548;8.658;2022-09-09T13:01:29;100001.56;;;19.76;100.00
29121;BME280;16191;49.548;8.658;2022-09-09T13:03:57;100003.69;;;19.62;100.00
29121;BME280;16191;49.548;8.658;2022-09-09T13:06:29;99996.91;;;20.42;100.00
29121;BME280;16191;49.548;8.658;2022-09-09T13:08:58;99997.31;;;20.68;100.00
29121;BME280;16191;49.548;8.658;2022-09-09T13:11:29;100001.69;;;19.75;100.00
29121;BME280;16191;49.548;8.658;2022-09-09T13:13:58;100003.00;;;19.37;100.00
29121;BME280;16191;49.548;8.658;2022-09-09T13:16:29;99997.81;;;19.04;100.00
29121;BME280;16191;49.548;8.658;2022-09-09T13:19:16;99994.75;;;19.08;100.00
29121;BME280;16191;49.548;8.658;2022-09-09T13:21:43;99990.19;;;19.10;100.00
29121;BME280;16191;49.548;8.658;2022-09-09T13:24:27;99991.19;;;18.87;100.00
29121;BME280;16191;49.548;8.658;2022-09-09T13:26:57;100003.09;;;18.70;100.00
29121;BME280;16191;49.548;8.658;2022-09-09T13:29:24;100013.97;;;18.32;100.00
29121;BME280;16191;49.548;8.658;2022-09-09T13:31:52;100023.13;;;18.04;100.00
29121;BME280;16191;49.548;8.658;2022-09-09T13:34:38;100048.66;;;17.93;100.00
29121;BME280;16191;49.548;8.658;2022-09-09T13:37:26;100029.88;;;18.20;100.00
29121;BME280;16191;49.548;8.658;2022-09-09T13:39:55;100004.63;;;18.39;100.00
29121;BME280;16191;49.548;8.658;2022-09-09T13:42:28;100012.00;;;18.23;100.00
29121;BME280;16191;49.548;8.658;2022-09-09T13:44:56;100021.88;;;18.32;100.00
29121;BME280;16191;49.548;8.658;2022-09-09T13:47:31;100032.84;;;18.39;100.00
29121;BME280;16191;49.548;8.658;2022-09-09T13:49:58;100052.84;;;18.30;100.00
29121;BME280;16191;49.548;8.658;2022-09-09T13:52:26;100035.09;;;17.97;100.00
29121;BME280;16191;49.548;8.658;2022-09-09T13:54:57;100033.06;;;17.66;100.00
29121;BME280;16191;49.548;8.658;2022-09-09T13:57:25;100021.13;;;17.73;100.00
29121;BME280;16191;49.548;8.658;2022-09-09T13:59:53;100019.84;;;17.90;100.00
29121;BME280;16191;49.548;8.658;2022-09-09T14:02:36;100009.84;;;18.17;100.00
29121;BME280;16191;49.548;8.658;2022-09-09T14:05:05;100008.19;;;18.27;100.00
29121;BME280;16191;49.548;8.658;2022-09-09T14:07:31;100001.72;;;18.42;100.00
29121;BME280;16191;49.548;8.658;2022-09-09T14:09:58;99997.69;;;18.72;100.00
29121;BME280;16191;49.548;8.658;2022-09-09T14:12:26;99999.59;;;19.03;100.00
29121;BME280;16191;49.548;8.658;2022-09-09T14:14:52;99991.88;;;19.23;100.00
29121;BME280;16191;49.548;8.658;2022-09-09T14:17:19;99981.72;;;19.39;100.00
29121;BME280;16191;49.548;8.658;2022-09-09T14:19:45;99979.75;;;19.63;100.00
29121;BME280;16191;49.548;8.658;2022-09-09T14:22:12;99973.53;;;19.74;100.00
29121;BME280;16191;49.548;8.658;2022-09-09T14:24:38;99969.31;;;20.03;100.00
29121;BME280;16191;49.548;8.658;2022-09-09T14:27:05;99954.94;;;20.47;100.00
29121;BME280;16191;49.548;8.658;2022-09-09T14:29:31;99957.88;;;21.53;100.00
29121;BME280;16191;49.548;8.658;2022-09-09T14:31:59;99948.78;;;22.04;100.00
29121;BME280;16191;49.548;8.658;2022-09-09T14:34:27;99950.44;;;22.15;100.00